Time;durP1;ratioP1;P1;durP2;ratioP2;P2;SDS_P1;SDS_P2;PMS_P1;PMS_P2;Temp;Humidity;BMP_temperature;BMP_pressure;BME280_temperature;BME280_humidity;BME280_pressure;Samples;Min_cycle;Max_cycle;Signal;HPM_P1;HPM_P2
2023/03/20 00:00:46;;;;;;;58.13;22.13;;;;;;;;;;6258888;28;20045;-63
2023/03/20 00:03:53;;;;;;;47.13;18.73;;;;;;;;;;6259716;28;20382;-64
2023/03/20 00:06:54;;;;;;;51.78;19.70;;;;;;;;;;6259726;28;20855;-62
2023/03/20 00:09:56;;;;;;;52.05;21.45;;;;;;;;;;6259381;28;20056;-62
2023/03/20 00:12:57;;;;;;;49.58;19.65;;;;;;;;;;6260853;28;20040;-63
2023/03/20 00:15:57;;;;;;;46.20;19.42;;;;;;;;;;6259578;28;20037;-62
2023/03/20 00:18:58;;;;;;;50.80;21.08;;;;;;;;;;6260437;28;20098;-62
2023/03/20 00:21:59;;;;;;;48.53;19.55;;;;;;;;;;6264698;28;20114;-62
2023/03/20 00:25:00;;;;;;;51.17;19.45;;;;;;;;;;6262840;28;20056;-63
2023/03/20 00:28:02;;;;;;;46.20;18.55;;;;;;;;;;6259116;28;20048;-66
2023/03/20 00:31:04;;;;;;;44.38;19.40;;;;;;;;;;6260932;28;20048;-62
2023/03/20 00:34:11;;;;;;;44.97;19.20;;;;;;;;;;6261219;28;20045;-63
2023/03/20 00:37:12;;;;;;;46.92;19.30;;;;;;;;;;6257647;28;20053;-61
2023/03/20 00:40:13;;;;;;;41.55;17.42;;;;;;;;;;6261061;28;20083;-61
2023/03/20 00:43:14;;;;;;;47.93;19.20;;;;;;;;;;6258519;28;20507;-62
2023/03/20 00:46:15;;;;;;;47.60;19.25;;;;;;;;;;6261929;28;20053;-64
2023/03/20 00:49:17;;;;;;;43.25;18.02;;;;;;;;;;6259150;28;20077;-64
2023/03/20 00:52:19;;;;;;;48.00;19.27;;;;;;;;;;6258899;28;20053;-63
2023/03/20 00:55:22;;;;;;;46.92;20.65;;;;;;;;;;6262114;28;20059;-62
2023/03/20 00:58:22;;;;;;;46.00;19.10;;;;;;;;;;6263860;28;20079;-62
2023/03/20 01:01:23;;;;;;;45.88;19.85;;;;;;;;;;6264927;28;20045;-62
2023/03/20 01:04:35;;;;;;;52.92;18.85;;;;;;;;;;6269505;28;20381;-62
2023/03/20 01:07:36;;;;;;;47.53;18.73;;;;;;;;;;6265909;28;20168;-62
2023/03/20 01:10:37;;;;;;;45.35;19.42;;;;;;;;;;6265018;28;20052;-62
2023/03/20 01:13:39;;;;;;;44.13;17.63;;;;;;;;;;6264797;28;20049;-62
2023/03/20 01:16:40;;;;;;;;;;;;;;;;;;6263348;28;20045;-62
2023/03/20 01:19:41;;;;;;;40.63;18.40;;;;;;;;;;6263184;28;19943;-63
2023/03/20 01:22:42;;;;;;;54.58;20.95;;;;;;;;;;6263008;28;20048;-61
2023/03/20 01:25:43;;;;;;;47.08;20.30;;;;;;;;;;6264839;28;20053;-62
2023/03/20 01:28:43;;;;;;;50.67;22.25;;;;;;;;;;6261201;28;20041;-62
2023/03/20 01:31:44;;;;;;;56.83;23.75;;;;;;;;;;6263266;28;20052;-62
2023/03/20 01:34:46;;;;;;;55.25;22.33;;;;;;;;;;6261955;28;20247;-62
2023/03/20 01:37:48;;;;;;;56.97;22.70;;;;;;;;;;6261447;28;20441;-61
2023/03/20 01:40:55;;;;;;;54.00;23.57;;;;;;;;;;6263102;28;20088;-61
2023/03/20 01:43:57;;;;;;;52.15;20.33;;;;;;;;;;6264349;28;20800;-61
2023/03/20 01:47:00;;;;;;;53.10;21.67;;;;;;;;;;6264564;28;20052;-61
2023/03/20 01:50:22;;;;;;;49.45;20.58;;;;;;;;;;6263183;28;20143;-62
2023/03/20 01:53:26;;;;;;;48.45;19.63;;;;;;;;;;6267618;28;20056;-61
2023/03/20 01:56:30;;;;;;;54.85;22.00;;;;;;;;;;6263260;28;20040;-61
2023/03/20 01:59:43;;;;;;;56.63;23.95;;;;;;;;;;6266034;28;20053;-61
2023/03/20 02:02:46;;;;;;;55.97;25.48;;;;;;;;;;6265599;28;20055;-61
2023/03/20 02:05:47;;;;;;;63.95;25.60;;;;;;;;;;6264190;28;20045;-61
2023/03/20 02:08:51;;;;;;;83.90;33.35;;;;;;;;;;6269778;28;20059;-61
2023/03/20 02:11:53;;;;;;;74.03;29.73;;;;;;;;;;6262246;28;20052;-61
2023/03/20 02:14:55;;;;;;;57.20;24.17;;;;;;;;;;6267363;28;20045;-61
2023/03/20 02:17:55;;;;;;;61.28;26.02;;;;;;;;;;6264382;28;20048;-62
2023/03/20 02:21:25;;;;;;;58.92;25.10;;;;;;;;;;6261103;28;20044;-61
2023/03/20 02:24:52;;;;;;;59.20;25.10;;;;;;;;;;6265125;28;20049;-61
2023/03/20 02:28:41;;;;;;;57.15;24.13;;;;;;;;;;6230625;28;20049;-61
2023/03/20 02:32:17;;;;;;;55.55;23.60;;;;;;;;;;6262029;28;20120;-61
2023/03/20 02:36:08;;;;;;;57.05;23.80;;;;;;;;;;6261867;28;20555;-61
2023/03/20 02:39:26;;;;;;;59.90;23.85;;;;;;;;;;6233433;28;20053;-61
2023/03/20 02:42:48;;;;;;;54.72;24.58;;;;;;;;;;6261467;28;20067;-62
2023/03/20 02:46:11;;;;;;;55.53;26.77;;;;;;;;;;6266856;28;20052;-61
2023/03/20 02:49:18;;;;;;;58.70;23.40;;;;;;;;;;6259470;28;20037;-62
2023/03/20 02:52:32;;;;;;;51.22;23.02;;;;;;;;;;6262262;28;20132;-60
2023/03/20 02:55:42;;;;;;;51.03;21.13;;;;;;;;;;6259494;28;20048;-61
2023/03/20 02:58:47;;;;;;;52.05;19.73;;;;;;;;;;6260809;28;20049;-61
2023/03/20 03:01:55;;;;;;;51.63;20.75;;;;;;;;;;6262091;28;20047;-61
2023/03/20 03:05:00;;;;;;;50.60;20.58;;;;;;;;;;6263498;28;20425;-62
2023/03/20 03:08:03;;;;;;;51.00;20.25;;;;;;;;;;6267767;28;20400;-62
2023/03/20 03:11:06;;;;;;;46.05;20.67;;;;;;;;;;6263592;28;20053;-61
2023/03/20 03:14:16;;;;;;;47.72;20.45;;;;;;;;;;6265831;28;20053;-60
2023/03/20 03:17:18;;;;;;;49.08;20.17;;;;;;;;;;6263289;28;20395;-61
2023/03/20 03:20:24;;;;;;;50.40;20.20;;;;;;;;;;6264033;28;20045;-61
2023/03/20 03:23:27;;;;;;;53.75;20.40;;;;;;;;;;6267944;28;20056;-61
2023/03/20 03:26:34;;;;;;;50.03;18.80;;;;;;;;;;6259202;28;20455;-61
2023/03/20 03:29:38;;;;;;;50.45;21.13;;;;;;;;;;6259155;28;20049;-61
2023/03/20 03:33:05;;;;;;;49.65;19.00;;;;;;;;;;6259771;28;20102;-62
2023/03/20 03:36:29;;;;;;;45.33;19.85;;;;;;;;;;6250292;28;20061;-61
2023/03/20 03:39:39;;;;;;;50.58;21.00;;;;;;;;;;6257743;28;20064;-61
2023/03/20 03:42:56;;;;;;;49.35;20.33;;;;;;;;;;6263838;28;20076;-60
2023/03/20 03:46:05;;;;;;;49.80;21.95;;;;;;;;;;6260992;28;20052;-60
2023/03/20 03:49:09;;;;;;;49.42;21.65;;;;;;;;;;6262964;28;20150;-60
2023/03/20 03:52:15;;;;;;;49.90;20.85;;;;;;;;;;6266935;28;20053;-62
2023/03/20 03:55:24;;;;;;;53.03;22.70;;;;;;;;;;6260515;28;20056;-61
2023/03/20 03:58:27;;;;;;;41.05;19.92;;;;;;;;;;6264901;28;20557;-61
2023/03/20 04:01:33;;;;;;;50.38;22.05;;;;;;;;;;6265155;28;20099;-60
2023/03/20 04:04:37;;;;;;;48.30;19.83;;;;;;;;;;6263040;28;20055;-60
2023/03/20 04:07:38;;;;;;;46.67;19.20;;;;;;;;;;6260999;28;20052;-61
2023/03/20 04:10:38;;;;;;;47.50;19.40;;;;;;;;;;6259614;28;20061;-60
2023/03/20 04:13:39;;;;;;;46.92;19.73;;;;;;;;;;6261208;28;20411;-62
2023/03/20 04:16:40;;;;;;;44.65;18.83;;;;;;;;;;6258488;28;20503;-61
2023/03/20 04:19:40;;;;;;;46.00;19.33;;;;;;;;;;6261741;28;20044;-61
2023/03/20 04:22:41;;;;;;;42.85;19.05;;;;;;;;;;6260112;28;20076;-62
2023/03/20 04:25:41;;;;;;;50.45;21.77;;;;;;;;;;6257389;28;20041;-61
2023/03/20 04:28:42;;;;;;;136.55;45.35;;;;;;;;;;6257258;28;20044;-61
2023/03/20 04:31:42;;;;;;;132.32;43.10;;;;;;;;;;6263796;28;20041;-61
2023/03/20 04:34:43;;;;;;;115.85;40.65;;;;;;;;;;6263130;28;20561;-61
2023/03/20 04:37:44;;;;;;;96.85;36.35;;;;;;;;;;6271228;28;20048;-61
2023/03/20 04:40:45;;;;;;;99.70;35.75;;;;;;;;;;6264730;28;20076;-61
2023/03/20 04:43:46;;;;;;;79.20;31.40;;;;;;;;;;6263800;28;20049;-62
2023/03/20 04:46:46;;;;;;;79.55;29.20;;;;;;;;;;6268945;28;20076;-61
2023/03/20 04:49:47;;;;;;;76.80;27.75;;;;;;;;;;6263881;28;20045;-61
2023/03/20 04:52:47;;;;;;;60.30;23.77;;;;;;;;;;6264033;28;20053;-61
2023/03/20 04:55:49;;;;;;;58.05;25.08;;;;;;;;;;6265719;28;20167;-61
2023/03/20 04:58:50;;;;;;;;;;;;;;;;;;6268311;28;20090;-61
2023/03/20 05:01:51;;;;;;;56.55;21.67;;;;;;;;;;6266672;28;19925;-60
2023/03/20 05:04:51;;;;;;;62.58;24.42;;;;;;;;;;6262378;28;20559;-61
2023/03/20 05:07:53;;;;;;;61.60;24.15;;;;;;;;;;6262496;28;20041;-61
2023/03/20 05:10:54;;;;;;;74.85;29.40;;;;;;;;;;6266302;28;20052;-61
2023/03/20 05:13:54;;;;;;;89.03;30.42;;;;;;;;;;6262007;28;20053;-61
2023/03/20 05:16:55;;;;;;;93.47;33.17;;;;;;;;;;6264349;28;20040;-60
2023/03/20 05:19:56;;;;;;;86.45;32.67;;;;;;;;;;6266387;28;20049;-60
2023/03/20 05:22:56;;;;;;;84.65;31.45;;;;;;;;;;6267124;28;20053;-61
2023/03/20 05:25:57;;;;;;;81.97;31.52;;;;;;;;;;6267311;28;20403;-62
2023/03/20 05:28:58;;;;;;;90.35;34.67;;;;;;;;;;6262866;28;20045;-62
2023/03/20 05:31:58;;;;;;;75.13;31.95;;;;;;;;;;6267232;28;20068;-63
2023/03/20 05:34:59;;;;;;;72.70;30.33;;;;;;;;;;6266399;28;20081;-61
2023/03/20 05:37:59;;;;;;;71.60;30.42;;;;;;;;;;6263749;28;20037;-61
2023/03/20 05:41:00;;;;;;;76.78;28.40;;;;;;;;;;6261466;28;20041;-61
2023/03/20 05:44:01;;;;;;;74.97;29.23;;;;;;;;;;6262505;28;20045;-61
2023/03/20 05:47:02;;;;;;;70.68;28.63;;;;;;;;;;6265945;28;20052;-61
2023/03/20 05:50:03;;;;;;;73.75;30.48;;;;;;;;;;6265220;28;20045;-61
2023/03/20 05:53:05;;;;;;;72.30;30.52;;;;;;;;;;6266263;28;20541;-60
2023/03/20 05:56:06;;;;;;;76.60;33.15;;;;;;;;;;6266951;28;20052;-62
2023/03/20 05:59:06;;;;;;;81.00;31.77;;;;;;;;;;6264948;28;20049;-61
2023/03/20 06:02:07;;;;;;;80.70;30.25;;;;;;;;;;6264993;28;20477;-62
2023/03/20 06:05:08;;;;;;;74.68;29.13;;;;;;;;;;6264681;28;20817;-62
2023/03/20 06:08:09;;;;;;;73.65;30.10;;;;;;;;;;6261679;28;20442;-62
2023/03/20 06:11:10;;;;;;;74.18;30.80;;;;;;;;;;6268889;28;20049;-62
2023/03/20 06:14:11;;;;;;;96.13;37.07;;;;;;;;;;6265960;28;20045;-61
2023/03/20 06:17:12;;;;;;;75.25;32.20;;;;;;;;;;6262784;28;20041;-62
2023/03/20 06:20:12;;;;;;;78.78;31.33;;;;;;;;;;6263440;28;20048;-61
2023/03/20 06:23:13;;;;;;;76.68;32.60;;;;;;;;;;6261390;28;20059;-62
2023/03/20 06:26:14;;;;;;;75.22;32.08;;;;;;;;;;6262806;28;20492;-62
2023/03/20 06:29:15;;;;;;;81.28;30.90;;;;;;;;;;6261904;28;20051;-62
2023/03/20 06:32:16;;;;;;;71.88;28.85;;;;;;;;;;6257370;28;20049;-61
2023/03/20 06:35:17;;;;;;;76.90;31.47;;;;;;;;;;6260139;28;20049;-63
2023/03/20 06:38:17;;;;;;;86.38;38.20;;;;;;;;;;6260213;28;20529;-63
2023/03/20 06:41:18;;;;;;;86.80;37.17;;;;;;;;;;6259736;28;20041;-63
2023/03/20 06:44:19;;;;;;;78.55;36.08;;;;;;;;;;6258706;28;20037;-63
2023/03/20 06:47:19;;;;;;;62.22;28.40;;;;;;;;;;6266260;28;20079;-63
2023/03/20 06:50:20;;;;;;;69.13;29.45;;;;;;;;;;6266426;28;20060;-63
2023/03/20 06:53:21;;;;;;;67.47;25.35;;;;;;;;;;6257568;28;20045;-63
2023/03/20 06:56:21;;;;;;;70.00;26.70;;;;;;;;;;6262018;28;20406;-63
2023/03/20 06:59:22;;;;;;;61.80;25.80;;;;;;;;;;6260733;28;20723;-63
2023/03/20 07:02:23;;;;;;;66.68;28.88;;;;;;;;;;6256241;28;20056;-62
2023/03/20 07:05:24;;;;;;;62.15;25.92;;;;;;;;;;6260844;28;20048;-63
2023/03/20 07:08:25;;;;;;;72.43;28.35;;;;;;;;;;6262669;28;20064;-63
2023/03/20 07:11:27;;;;;;;73.72;29.52;;;;;;;;;;6265284;28;20049;-63
2023/03/20 07:14:27;;;;;;;79.00;30.20;;;;;;;;;;6264692;28;20611;-63
2023/03/20 07:17:28;;;;;;;83.55;35.08;;;;;;;;;;6265088;28;20377;-63
2023/03/20 07:20:28;;;;;;;74.15;29.17;;;;;;;;;;6261194;28;20373;-63
2023/03/20 07:23:30;;;;;;;72.03;28.88;;;;;;;;;;6258494;28;20060;-63
2023/03/20 07:26:30;;;;;;;75.20;29.93;;;;;;;;;;6259017;28;20083;-62
2023/03/20 07:29:31;;;;;;;78.50;31.88;;;;;;;;;;6259249;28;20488;-63
2023/03/20 07:32:32;;;;;;;81.57;33.17;;;;;;;;;;6257569;28;20061;-62
2023/03/20 07:35:33;;;;;;;75.68;33.17;;;;;;;;;;6258499;28;20511;-63
2023/03/20 07:38:33;;;;;;;79.78;31.08;;;;;;;;;;6257014;28;20045;-62
2023/03/20 07:41:34;;;;;;;76.88;33.20;;;;;;;;;;6253962;28;20511;-63
2023/03/20 07:44:35;;;;;;;78.65;33.38;;;;;;;;;;6259772;28;20053;-63
2023/03/20 07:47:35;;;;;;;90.13;34.97;;;;;;;;;;6257804;28;20044;-62
2023/03/20 07:50:36;;;;;;;85.07;33.03;;;;;;;;;;6256941;28;20052;-63
2023/03/20 07:53:37;;;;;;;90.18;36.83;;;;;;;;;;6257310;28;20033;-63
2023/03/20 07:56:37;;;;;;;85.97;34.33;;;;;;;;;;6258319;28;20060;-63
2023/03/20 07:59:38;;;;;;;84.90;34.72;;;;;;;;;;6259215;28;20067;-63
2023/03/20 08:02:38;;;;;;;93.60;36.75;;;;;;;;;;6257058;28;20467;-63
2023/03/20 08:05:39;;;;;;;97.28;36.90;;;;;;;;;;6258108;28;20485;-63
2023/03/20 08:08:40;;;;;;;101.10;36.35;;;;;;;;;;6255949;28;20099;-62
2023/03/20 08:11:42;;;;;;;105.82;38.67;;;;;;;;;;6255991;28;20455;-63
2023/03/20 08:14:43;;;;;;;112.07;40.25;;;;;;;;;;6257924;28;20045;-63
2023/03/20 08:17:44;;;;;;;112.10;39.17;;;;;;;;;;6260380;28;20041;-63
2023/03/20 08:20:45;;;;;;;109.50;39.88;;;;;;;;;;6257720;28;20071;-63
2023/03/20 08:23:46;;;;;;;118.78;37.85;;;;;;;;;;6257316;28;20091;-63
2023/03/20 08:26:46;;;;;;;120.60;37.15;;;;;;;;;;6259555;28;20654;-62
2023/03/20 08:29:47;;;;;;;112.40;38.50;;;;;;;;;;6260580;28;20068;-63
2023/03/20 08:32:47;;;;;;;115.15;37.70;;;;;;;;;;6261516;28;20048;-62
2023/03/20 08:35:56;;;;;;;118.38;39.10;;;;;;;;;;6260561;28;20515;-63
2023/03/20 08:38:57;;;;;;;120.47;39.28;;;;;;;;;;6258836;28;20152;-63
2023/03/20 08:41:57;;;;;;;118.30;38.20;;;;;;;;;;6259392;28;20045;-63
2023/03/20 08:44:58;;;;;;;114.97;37.90;;;;;;;;;;6257012;28;20049;-63
2023/03/20 08:47:58;;;;;;;114.40;38.75;;;;;;;;;;6258011;28;20036;-62
2023/03/20 08:50:59;;;;;;;111.65;37.95;;;;;;;;;;6257461;28;20514;-63
2023/03/20 08:54:00;;;;;;;106.00;34.95;;;;;;;;;;6256126;28;20056;-63
2023/03/20 08:57:00;;;;;;;93.65;34.40;;;;;;;;;;6259604;28;20094;-63
2023/03/20 09:00:01;;;;;;;96.18;35.55;;;;;;;;;;6257674;28;20144;-63
2023/03/20 09:03:02;;;;;;;85.80;32.90;;;;;;;;;;6256208;28;20106;-62
2023/03/20 09:06:07;;;;;;;90.82;33.60;;;;;;;;;;6258108;28;20041;-63
2023/03/20 09:09:08;;;;;;;80.78;31.77;;;;;;;;;;6258092;28;20397;-63
2023/03/20 09:12:09;;;;;;;76.32;30.27;;;;;;;;;;6257223;28;20110;-63
2023/03/20 09:15:10;;;;;;;66.68;28.20;;;;;;;;;;6262682;28;20053;-63
2023/03/20 09:18:11;;;;;;;65.33;27.67;;;;;;;;;;6266162;28;20126;-62
2023/03/20 09:21:12;;;;;;;58.15;25.23;;;;;;;;;;6261737;28;20297;-62
2023/03/20 09:24:13;;;;;;;58.97;25.25;;;;;;;;;;6261994;28;20069;-62
2023/03/20 09:27:14;;;;;;;58.13;25.55;;;;;;;;;;6263104;28;20078;-63
2023/03/20 09:30:15;;;;;;;56.97;25.73;;;;;;;;;;6261584;28;20052;-63
2023/03/20 09:33:17;;;;;;;56.42;25.35;;;;;;;;;;6262253;28;20045;-63
2023/03/20 09:36:18;;;;;;;53.25;24.52;;;;;;;;;;6262835;28;20166;-63
2023/03/20 09:39:18;;;;;;;49.90;24.42;;;;;;;;;;6261627;28;20049;-63
2023/03/20 09:42:24;;;;;;;48.17;23.85;;;;;;;;;;6259510;28;20098;-63
2023/03/20 09:45:43;;;;;;;48.20;23.70;;;;;;;;;;6261720;28;20049;-63
2023/03/20 09:49:15;;;;;;;46.33;22.75;;;;;;;;;;6262327;28;20203;-62
2023/03/20 09:52:30;;;;;;;41.70;22.67;;;;;;;;;;6259817;28;20044;-62
2023/03/20 09:55:36;;;;;;;43.95;21.85;;;;;;;;;;6259216;28;20123;-63
2023/03/20 09:58:38;;;;;;;45.58;22.00;;;;;;;;;;6260925;28;20099;-62
2023/03/20 10:01:56;;;;;;;46.58;24.63;;;;;;;;;;6261319;28;20075;-63
2023/03/20 10:04:57;;;;;;;43.55;22.48;;;;;;;;;;6261014;28;20110;-63
2023/03/20 10:08:01;;;;;;;46.67;23.02;;;;;;;;;;6258622;28;20086;-63
2023/03/20 10:11:23;;;;;;;44.10;21.48;;;;;;;;;;6261928;28;20048;-62
2023/03/20 10:14:45;;;;;;;41.38;20.75;;;;;;;;;;6262391;28;20051;-62
2023/03/20 10:17:49;;;;;;;;;;;;;;;;;;6261708;28;20411;-63
2023/03/20 10:20:55;;;;;;;39.10;19.23;;;;;;;;;;6259262;28;19935;-63
2023/03/20 10:24:02;;;;;;;43.25;22.73;;;;;;;;;;6259419;28;20831;-62
2023/03/20 10:27:16;;;;;;;38.63;20.27;;;;;;;;;;6260305;28;20415;-62
2023/03/20 10:31:18;;;;;;;39.88;21.50;;;;;;;;;;6257463;28;20045;-63
2023/03/20 10:34:35;;;;;;;38.35;19.85;;;;;;;;;;6198206;28;20050;-63
2023/03/20 10:37:51;;;;;;;37.80;18.80;;;;;;;;;;6210490;28;20060;-63
2023/03/20 10:40:56;;;;;;;38.22;19.50;;;;;;;;;;6260903;28;20051;-63
2023/03/20 10:43:59;;;;;;;45.08;24.42;;;;;;;;;;6261553;28;20045;-63
2023/03/20 10:47:04;;;;;;;38.20;19.98;;;;;;;;;;6257322;28;20124;-63
2023/03/20 10:50:08;;;;;;;37.90;20.95;;;;;;;;;;6260899;28;20055;-62
2023/03/20 10:53:23;;;;;;;37.60;20.17;;;;;;;;;;6258464;28;20041;-62
2023/03/20 10:56:39;;;;;;;36.60;18.70;;;;;;;;;;6258970;28;20510;-63
2023/03/20 10:59:47;;;;;;;36.97;19.10;;;;;;;;;;6259268;28;20045;-62
2023/03/20 11:02:48;;;;;;;35.53;18.70;;;;;;;;;;6258037;28;20052;-62
2023/03/20 11:05:53;;;;;;;37.83;20.08;;;;;;;;;;6258101;28;20423;-62
2023/03/20 11:08:53;;;;;;;37.95;20.70;;;;;;;;;;6256028;28;20132;-62
2023/03/20 11:12:00;;;;;;;34.92;19.42;;;;;;;;;;6260907;28;20180;-62
2023/03/20 11:15:18;;;;;;;30.60;17.55;;;;;;;;;;6261046;28;20045;-62
2023/03/20 11:18:22;;;;;;;34.60;18.33;;;;;;;;;;6256887;28;20045;-62
2023/03/20 11:21:30;;;;;;;34.70;18.20;;;;;;;;;;6258893;28;20840;-62
2023/03/20 11:24:47;;;;;;;30.20;17.33;;;;;;;;;;6258472;28;20056;-62
2023/03/20 11:27:48;;;;;;;32.05;17.60;;;;;;;;;;6259868;28;20036;-63
2023/03/20 11:30:49;;;;;;;34.17;18.33;;;;;;;;;;6258720;28;20051;-62
2023/03/20 11:33:52;;;;;;;28.27;16.80;;;;;;;;;;6258945;28;20154;-62
2023/03/20 11:36:58;;;;;;;26.65;15.80;;;;;;;;;;6260421;28;20045;-62
2023/03/20 11:40:29;;;;;;;31.02;17.27;;;;;;;;;;6258978;28;20083;-63
2023/03/20 11:43:36;;;;;;;29.63;17.27;;;;;;;;;;6257108;28;20063;-62
2023/03/20 11:46:37;;;;;;;30.95;17.42;;;;;;;;;;6258084;28;20056;-63
2023/03/20 11:49:48;;;;;;;29.92;18.13;;;;;;;;;;6262188;28;20048;-62
2023/03/20 11:52:49;;;;;;;49.90;30.92;;;;;;;;;;6258037;28;20056;-62
2023/03/20 11:56:09;;;;;;;29.73;17.90;;;;;;;;;;6260170;28;20068;-63
2023/03/20 11:59:12;;;;;;;30.63;16.98;;;;;;;;;;6256595;28;20048;-63
2023/03/20 12:02:21;;;;;;;28.10;16.63;;;;;;;;;;6257758;28;20044;-63
2023/03/20 12:05:35;;;;;;;28.58;16.65;;;;;;;;;;6255626;28;20072;-62
2023/03/20 12:08:38;;;;;;;27.70;16.55;;;;;;;;;;6259188;28;20084;-63
2023/03/20 12:11:59;;;;;;;25.05;15.38;;;;;;;;;;6261570;28;20488;-62
2023/03/20 12:15:12;;;;;;;25.98;15.93;;;;;;;;;;6259069;28;20045;-63
2023/03/20 12:18:32;;;;;;;27.65;16.65;;;;;;;;;;6250563;28;20053;-62
2023/03/20 12:21:54;;;;;;;33.97;18.63;;;;;;;;;;6264388;28;20041;-62
2023/03/20 12:25:27;;;;;;;27.60;17.43;;;;;;;;;;6264432;28;20488;-62
2023/03/20 12:28:55;;;;;;;23.83;14.27;;;;;;;;;;6266119;28;20297;-62
2023/03/20 12:32:02;;;;;;;26.58;15.60;;;;;;;;;;6254505;28;20495;-63
2023/03/20 12:35:17;;;;;;;28.77;16.67;;;;;;;;;;6260547;28;20040;-62
2023/03/20 12:38:25;;;;;;;28.52;16.20;;;;;;;;;;6258975;28;20049;-62
2023/03/20 12:41:40;;;;;;;27.20;16.65;;;;;;;;;;6257825;28;20037;-63
2023/03/20 12:44:40;;;;;;;26.45;15.43;;;;;;;;;;6255731;28;20056;-62
2023/03/20 12:47:44;;;;;;;27.33;15.18;;;;;;;;;;6260508;28;20049;-63
2023/03/20 12:51:03;;;;;;;26.27;16.30;;;;;;;;;;6263100;28;20068;-63
2023/03/20 12:54:57;;;;;;;30.83;17.95;;;;;;;;;;6264764;28;20044;-62
2023/03/20 12:58:13;;;;;;;30.30;19.48;;;;;;;;;;6262849;28;20595;-62
2023/03/20 13:01:25;;;;;;;36.03;21.02;;;;;;;;;;6264398;28;20043;-62
2023/03/20 13:04:55;;;;;;;33.22;21.25;;;;;;;;;;6263154;28;20052;-62
2023/03/20 13:07:59;;;;;;;33.80;21.15;;;;;;;;;;6264937;28;20109;-62
2023/03/20 13:11:09;;;;;;;35.10;22.13;;;;;;;;;;6264116;28;20068;-62
2023/03/20 13:14:23;;;;;;;38.22;23.55;;;;;;;;;;6262888;28;20041;-63
2023/03/20 13:17:43;;;;;;;36.35;22.58;;;;;;;;;;6264404;28;20132;-63
2023/03/20 13:20:46;;;;;;;41.47;23.52;;;;;;;;;;6263232;28;21634;-62
2023/03/20 13:24:03;;;;;;;38.58;22.60;;;;;;;;;;6263212;28;20083;-62
2023/03/20 13:27:09;;;;;;;36.95;23.13;;;;;;;;;;6262200;28;20037;-62
2023/03/20 13:30:25;;;;;;;41.17;23.90;;;;;;;;;;6263468;28;20068;-62
2023/03/20 13:33:35;;;;;;;43.22;24.23;;;;;;;;;;6264877;28;20045;-62
2023/03/20 13:36:47;;;;;;;41.10;24.60;;;;;;;;;;6265052;28;20049;-62
2023/03/20 13:39:57;;;;;;;43.85;24.63;;;;;;;;;;6262755;28;20071;-62
2023/03/20 13:43:19;;;;;;;38.85;23.05;;;;;;;;;;6263066;28;20048;-63
2023/03/20 13:46:33;;;;;;;41.58;23.40;;;;;;;;;;6266666;28;20550;-62
2023/03/20 13:49:42;;;;;;;38.22;23.90;;;;;;;;;;6260099;28;20049;-63
2023/03/20 13:52:51;;;;;;;38.72;23.63;;;;;;;;;;6262691;28;20106;-62
2023/03/20 13:56:05;;;;;;;39.25;22.15;;;;;;;;;;6264044;28;20057;-62
2023/03/20 13:59:33;;;;;;;37.85;23.33;;;;;;;;;;6261945;28;20048;-62
2023/03/20 14:02:48;;;;;;;35.42;22.02;;;;;;;;;;6263898;28;20405;-62
2023/03/20 14:05:49;;;;;;;36.20;22.33;;;;;;;;;;6262856;28;20088;-62
2023/03/20 14:08:53;;;;;;;37.28;21.23;;;;;;;;;;6263963;28;20481;-62
2023/03/20 14:11:58;;;;;;;41.53;20.52;;;;;;;;;;6261289;28;20049;-62
2023/03/20 14:14:59;;;;;;;33.70;21.30;;;;;;;;;;6259705;28;20060;-63
2023/03/20 14:18:05;;;;;;;38.80;21.80;;;;;;;;;;6261788;28;20059;-62
2023/03/20 14:21:16;;;;;;;36.35;20.95;;;;;;;;;;6267036;28;20076;-62
2023/03/20 14:24:19;;;;;;;37.73;20.73;;;;;;;;;;6262941;28;20047;-62
2023/03/20 14:27:21;;;;;;;40.10;22.80;;;;;;;;;;6260814;28;20609;-62
2023/03/20 14:30:31;;;;;;;33.97;20.33;;;;;;;;;;6261175;28;20390;-62
2023/03/20 14:33:31;;;;;;;38.55;22.55;;;;;;;;;;6262189;28;20087;-62
2023/03/20 14:36:57;;;;;;;38.92;22.50;;;;;;;;;;6261506;28;20438;-62
2023/03/20 14:40:18;;;;;;;34.95;20.95;;;;;;;;;;6262305;28;20139;-63
2023/03/20 14:43:24;;;;;;;39.78;22.65;;;;;;;;;;6261619;28;20503;-62
2023/03/20 14:46:49;;;;;;;37.20;20.83;;;;;;;;;;6260698;28;20094;-63
2023/03/20 14:50:02;;;;;;;35.38;21.77;;;;;;;;;;6261932;28;20094;-62
2023/03/20 14:53:22;;;;;;;35.65;22.33;;;;;;;;;;6261119;28;20484;-62
2023/03/20 14:56:32;;;;;;;36.28;21.30;;;;;;;;;;6264215;28;20408;-58
2023/03/20 14:59:33;;;;;;;38.15;22.30;;;;;;;;;;6260918;28;20060;-61
2023/03/20 15:02:35;;;;;;;39.10;21.98;;;;;;;;;;6259266;28;20053;-62
2023/03/20 15:05:38;;;;;;;36.67;22.55;;;;;;;;;;6261433;28;20045;-61
2023/03/20 15:08:55;;;;;;;40.53;22.75;;;;;;;;;;6262484;28;20053;-62
2023/03/20 15:12:02;;;;;;;44.55;24.10;;;;;;;;;;6262605;28;20084;-62
2023/03/20 15:15:06;;;;;;;43.17;23.75;;;;;;;;;;6263515;28;20053;-62
2023/03/20 15:18:12;;;;;;;45.38;25.58;;;;;;;;;;6260564;28;20048;-61
2023/03/20 15:21:16;;;;;;;54.22;32.20;;;;;;;;;;6260599;28;20053;-61
2023/03/20 15:24:22;;;;;;;57.42;32.00;;;;;;;;;;6256930;28;20045;-62
2023/03/20 15:27:28;;;;;;;55.83;32.67;;;;;;;;;;6245390;28;20059;-61
2023/03/20 15:30:31;;;;;;;57.55;31.25;;;;;;;;;;6249237;28;20801;-61
2023/03/20 15:33:32;;;;;;;59.72;32.67;;;;;;;;;;6248704;28;20052;-61
2023/03/20 15:36:35;;;;;;;63.55;35.28;;;;;;;;;;6251910;28;20143;-61
2023/03/20 15:39:46;;;;;;;57.90;33.75;;;;;;;;;;6255244;28;20161;-61
2023/03/20 15:42:56;;;;;;;66.88;36.65;;;;;;;;;;6250828;28;20049;-62
2023/03/20 15:45:57;;;;;;;58.60;34.28;;;;;;;;;;6245085;28;21662;-61
2023/03/20 15:48:59;;;;;;;64.35;34.60;;;;;;;;;;6248102;28;20439;-62
2023/03/20 15:52:05;;;;;;;61.33;34.10;;;;;;;;;;6250557;28;20512;-62
2023/03/20 15:55:13;;;;;;;61.45;35.08;;;;;;;;;;6248733;28;20107;-61
2023/03/20 15:58:15;;;;;;;69.93;39.10;;;;;;;;;;6244390;28;20913;-61
2023/03/20 16:01:24;;;;;;;64.07;37.95;;;;;;;;;;6250698;28;20049;-62
2023/03/20 16:04:26;;;;;;;68.07;39.28;;;;;;;;;;6248652;28;20456;-61
2023/03/20 16:07:30;;;;;;;68.80;40.72;;;;;;;;;;6244902;28;20114;-62
2023/03/20 16:10:34;;;;;;;74.13;42.55;;;;;;;;;;6245336;28;20176;-62
2023/03/20 16:13:38;;;;;;;69.35;40.67;;;;;;;;;;6250602;28;20050;-62
2023/03/20 16:16:40;;;;;;;70.80;42.35;;;;;;;;;;6247736;28;20049;-60
2023/03/20 16:19:40;;;;;;;71.05;42.42;;;;;;;;;;6248203;28;20041;-62
2023/03/20 16:22:43;;;;;;;73.63;44.60;;;;;;;;;;6247313;28;20060;-61
2023/03/20 16:25:43;;;;;;;;;;;;;;;;;;6250305;28;20063;-61
2023/03/20 16:28:46;;;;;;;70.95;40.42;;;;;;;;;;6252109;28;20380;-62
2023/03/20 16:31:57;;;;;;;76.95;43.50;;;;;;;;;;6253837;28;20049;-62
2023/03/20 16:35:02;;;;;;;76.22;41.83;;;;;;;;;;6255367;28;20722;-61
2023/03/20 16:38:22;;;;;;;75.78;42.08;;;;;;;;;;6251410;28;21422;-62
2023/03/20 16:41:30;;;;;;;74.40;40.63;;;;;;;;;;6252644;28;20053;-61
2023/03/20 16:44:35;;;;;;;81.47;43.78;;;;;;;;;;6253432;28;20053;-62
2023/03/20 16:47:37;;;;;;;77.10;41.45;;;;;;;;;;6251356;28;20049;-62
2023/03/20 16:50:44;;;;;;;84.97;45.58;;;;;;;;;;6252146;28;20049;-62
2023/03/20 16:53:47;;;;;;;82.28;45.63;;;;;;;;;;6260938;28;20057;-61
2023/03/20 16:56:52;;;;;;;89.78;49.30;;;;;;;;;;6259425;28;20563;-62
2023/03/20 16:59:59;;;;;;;98.82;49.25;;;;;;;;;;6259625;28;20408;-61
2023/03/20 17:03:10;;;;;;;111.82;52.17;;;;;;;;;;6261123;28;20057;-60
2023/03/20 17:06:20;;;;;;;96.53;50.03;;;;;;;;;;6259874;28;20107;-60
2023/03/20 17:09:23;;;;;;;91.53;47.75;;;;;;;;;;6260809;28;20499;-61
2023/03/20 17:12:30;;;;;;;86.85;46.45;;;;;;;;;;6257906;28;20044;-61
2023/03/20 17:15:30;;;;;;;95.15;49.25;;;;;;;;;;6259995;28;20057;-61
2023/03/20 17:18:37;;;;;;;103.45;52.05;;;;;;;;;;6258132;28;20094;-61
2023/03/20 17:21:37;;;;;;;113.47;58.08;;;;;;;;;;6259099;28;20159;-61
2023/03/20 17:24:38;;;;;;;114.55;59.85;;;;;;;;;;6260789;28;20539;-61
2023/03/20 17:27:39;;;;;;;118.53;61.60;;;;;;;;;;6259442;28;20080;-61
2023/03/20 17:30:40;;;;;;;118.22;61.63;;;;;;;;;;6260656;28;20059;-61
2023/03/20 17:33:41;;;;;;;122.20;68.60;;;;;;;;;;6260130;28;20053;-60
2023/03/20 17:36:42;;;;;;;139.13;69.00;;;;;;;;;;6259065;28;20108;-61
2023/03/20 17:39:43;;;;;;;131.25;71.55;;;;;;;;;;6261787;28;20049;-61
2023/03/20 17:42:44;;;;;;;118.20;64.65;;;;;;;;;;6258375;28;20131;-62
2023/03/20 17:45:46;;;;;;;130.30;65.35;;;;;;;;;;6259564;28;20064;-61
2023/03/20 17:48:47;;;;;;;123.43;63.55;;;;;;;;;;6259492;28;20049;-61
2023/03/20 17:51:48;;;;;;;117.70;63.30;;;;;;;;;;6258881;28;20056;-62
2023/03/20 17:54:49;;;;;;;105.82;54.72;;;;;;;;;;6260658;28;20107;-62
2023/03/20 17:57:50;;;;;;;111.53;54.45;;;;;;;;;;6258336;28;20064;-62
2023/03/20 18:00:52;;;;;;;113.97;57.97;;;;;;;;;;6260027;28;20053;-63
2023/03/20 18:03:53;;;;;;;;;;;;;;;;;;6259409;28;20053;-61